createdAt,value
2018-11-25T00:02:31.874Z,39.93
2018-11-25T00:05:13.296Z,44.40
2018-11-25T00:07:55.017Z,42.30
2018-11-25T00:10:37.332Z,42.23
2018-11-25T00:13:20.044Z,46.17
2018-11-25T00:16:03.012Z,48.50
2018-11-25T00:18:45.164Z,49.27
2018-11-25T00:21:27.161Z,45.70
2018-11-25T00:24:09.478Z,42.63
2018-11-25T00:26:50.846Z,43.10
2018-11-25T00:29:33.260Z,41.67
2018-11-25T00:32:15.702Z,40.97
2018-11-25T00:34:57.942Z,36.07
2018-11-25T00:37:43.346Z,37.43
2018-11-25T00:40:22.245Z,44.63
2018-11-25T00:43:04.773Z,39.60
2018-11-25T00:45:46.667Z,39.90
2018-11-25T00:48:29.048Z,43.40
2018-11-25T00:51:11.556Z,38.60
2018-11-25T00:53:53.231Z,40.03
2018-11-25T00:56:34.968Z,39.43
2018-11-25T00:59:17.273Z,42.73
2018-11-25T01:01:59.994Z,43.00
2018-11-25T01:04:41.848Z,38.63
2018-11-25T01:07:24.377Z,37.57
2018-11-25T01:10:09.451Z,47.07
2018-11-25T01:12:51.526Z,40.87
2018-11-25T01:15:34.063Z,44.10
2018-11-25T01:18:16.572Z,41.77
2018-11-25T01:20:58.466Z,45.53
2018-11-25T01:23:40.158Z,42.23
2018-11-25T01:26:21.845Z,49.17
2018-11-25T01:29:04.686Z,40.50
2018-11-25T01:31:46.755Z,46.70
2018-11-25T01:34:28.998Z,40.90
2018-11-25T01:37:11.705Z,41.07
2018-11-25T01:39:53.863Z,42.30
2018-11-25T01:42:35.791Z,41.63
2018-11-25T01:45:18.722Z,38.53
2018-11-25T01:48:00.998Z,39.10
2018-11-25T01:50:43.830Z,40.57
2018-11-25T01:53:25.710Z,40.90
2018-11-25T01:56:07.716Z,42.07
2018-11-25T01:58:49.282Z,44.00
2018-11-25T02:01:31.325Z,40.90
2018-11-25T02:04:13.388Z,42.50
2018-11-25T02:06:55.230Z,47.70
2018-11-25T02:09:37.393Z,44.67
2018-11-25T02:12:19.287Z,42.37
2018-11-25T02:15:01.901Z,44.60
2018-11-25T02:17:43.993Z,42.07
2018-11-25T02:20:25.936Z,43.87
2018-11-25T02:23:07.521Z,48.67
2018-11-25T02:25:49.166Z,42.83
2018-11-25T02:28:31.478Z,41.70
2018-11-25T02:31:13.273Z,44.30
2018-11-25T02:33:55.614Z,38.93
2018-11-25T02:36:37.243Z,40.10
2018-11-25T02:39:20.330Z,37.03
2018-11-25T02:42:02.388Z,36.30
2018-11-25T02:44:44.825Z,33.53
2018-11-25T02:47:27.111Z,34.57
2018-11-25T02:50:27.153Z,33.70
2018-11-25T02:53:09.660Z,35.33
2018-11-25T02:55:52.554Z,32.67
2018-11-25T02:58:35.290Z,29.30
2018-11-25T03:01:17.485Z,34.90
2018-11-25T03:03:59.470Z,30.17
2018-11-25T03:06:42.078Z,28.97
2018-11-25T03:09:24.616Z,30.37
2018-11-25T03:12:07.032Z,30.20
2018-11-25T03:14:49.378Z,29.00
2018-11-25T03:17:30.799Z,29.73
2018-11-25T03:20:13.342Z,29.17
2018-11-25T03:22:56.026Z,30.97
2018-11-25T03:25:38.323Z,27.77
2018-11-25T03:28:20.785Z,27.73
2018-11-25T03:31:03.566Z,29.33
2018-11-25T03:33:45.949Z,28.00
2018-11-25T03:36:27.518Z,26.70
2018-11-25T03:39:09.890Z,29.13
2018-11-25T03:41:51.650Z,28.50
2018-11-25T03:44:33.970Z,27.77
2018-11-25T03:47:15.910Z,28.10
2018-11-25T03:49:58.392Z,28.87
2018-11-25T03:52:40.427Z,26.23
2018-11-25T03:55:23.250Z,27.30
2018-11-25T03:58:05.356Z,29.50
2018-11-25T04:00:47.807Z,25.30
2018-11-25T04:03:30.163Z,29.33
2018-11-25T04:06:11.795Z,28.53
2018-11-25T04:08:53.460Z,27.23
2018-11-25T04:11:35.179Z,32.47
2018-11-25T04:14:17.055Z,27.57
2018-11-25T04:16:59.870Z,29.70
2018-11-25T04:19:41.663Z,28.93
2018-11-25T04:22:23.860Z,26.20
2018-11-25T04:25:06.763Z,29.43
2018-11-25T04:27:48.355Z,27.70
2018-11-25T04:30:30.065Z,27.93
2018-11-25T04:33:12.233Z,23.67
2018-11-25T04:35:54.046Z,23.10
2018-11-25T04:38:35.756Z,22.73
2018-11-25T04:41:18.073Z,25.60
2018-11-25T04:44:00.182Z,21.77
2018-11-25T04:46:42.663Z,25.93
2018-11-25T04:49:26.198Z,27.23
2018-11-25T04:52:08.283Z,25.93
2018-11-25T04:54:49.985Z,27.30
2018-11-25T04:57:31.862Z,31.10
2018-11-25T05:00:14.189Z,31.67
2018-11-25T05:02:57.039Z,31.33
2018-11-25T05:05:38.762Z,30.80
2018-11-25T05:08:20.889Z,34.00
2018-11-25T05:11:03.102Z,32.00
2018-11-25T05:13:44.585Z,34.73
2018-11-25T05:16:26.698Z,33.23
2018-11-25T05:19:08.811Z,31.67
2018-11-25T05:21:51.704Z,33.40
2018-11-25T05:24:33.822Z,37.83
2018-11-25T05:27:15.425Z,36.50
2018-11-25T05:29:56.966Z,35.23
2018-11-25T05:32:38.788Z,37.67
2018-11-25T05:35:20.842Z,38.67
2018-11-25T05:38:02.818Z,40.37
2018-11-25T05:40:44.336Z,37.07
2018-11-25T05:43:26.332Z,38.93
2018-11-25T05:46:08.479Z,40.57
2018-11-25T05:48:50.506Z,39.70
2018-11-25T05:51:32.274Z,38.53
2018-11-25T05:54:14.432Z,35.57
2018-11-25T05:56:56.656Z,37.73
2018-11-25T05:59:38.850Z,35.50
2018-11-25T06:02:21.336Z,38.90
2018-11-25T06:05:02.822Z,34.20
2018-11-25T06:07:44.652Z,33.13
2018-11-25T06:10:26.552Z,36.57
2018-11-25T06:13:08.948Z,37.30
2018-11-25T06:15:51.045Z,38.53
2018-11-25T06:18:32.718Z,39.27
2018-11-25T06:21:14.666Z,37.90
2018-11-25T06:23:57.458Z,33.03
2018-11-25T06:26:39.840Z,40.70
2018-11-25T06:29:22.062Z,37.20
2018-11-25T06:32:03.421Z,35.73
2018-11-25T06:34:53.720Z,38.47
2018-11-25T06:37:35.631Z,42.40
2018-11-25T06:40:20.813Z,41.57
2018-11-25T06:43:03.307Z,39.63
2018-11-25T06:45:46.170Z,40.97
2018-11-25T06:48:28.774Z,39.97
2018-11-25T06:51:10.357Z,38.30
2018-11-25T06:53:52.248Z,42.20
2018-11-25T06:56:34.431Z,40.87
2018-11-25T06:59:16.021Z,39.73
2018-11-25T07:01:57.690Z,41.83
2018-11-25T07:04:39.806Z,38.57
2018-11-25T07:07:22.105Z,36.43
2018-11-25T07:10:05.115Z,39.30
2018-11-25T07:12:47.006Z,38.20
2018-11-25T07:15:29.957Z,36.87
2018-11-25T07:18:11.751Z,38.70
2018-11-25T07:20:53.658Z,39.73
2018-11-25T07:23:36.141Z,38.60
2018-11-25T07:26:17.325Z,39.67
2018-11-25T07:28:59.558Z,40.83
2018-11-25T07:31:42.475Z,41.93
2018-11-25T07:34:25.059Z,38.60
2018-11-25T07:37:07.549Z,38.17
2018-11-25T07:39:49.909Z,43.30
2018-11-25T07:42:31.450Z,38.73
2018-11-25T07:45:15.970Z,44.03
2018-11-25T07:48:10.014Z,42.40
2018-11-25T07:51:08.535Z,42.87
2018-11-25T07:53:50.713Z,37.97
2018-11-25T07:56:33.516Z,39.87
2018-11-25T07:59:15.710Z,44.87
2018-11-25T08:01:57.732Z,42.30
2018-11-25T08:04:40.663Z,42.63
2018-11-25T08:07:23.364Z,40.00
2018-11-25T08:10:08.026Z,40.60
2018-11-25T08:12:50.105Z,40.10
2018-11-25T08:15:31.900Z,38.03
2018-11-25T08:18:13.892Z,37.10
2018-11-25T08:20:56.048Z,37.67
2018-11-25T08:23:37.658Z,43.67
2018-11-25T08:26:19.806Z,40.07
2018-11-25T08:29:01.874Z,40.27
2018-11-25T08:31:44.091Z,40.63
2018-11-25T08:34:26.833Z,42.20
2018-11-25T08:37:09.235Z,46.43
2018-11-25T08:39:51.232Z,43.93
2018-11-25T08:42:33.231Z,54.63
2018-11-25T08:45:15.483Z,43.50
2018-11-25T08:47:57.616Z,50.73
2018-11-25T08:50:39.711Z,44.07
2018-11-25T08:53:21.863Z,45.67
2018-11-25T08:56:04.225Z,43.17
2018-11-25T08:58:47.122Z,48.40
2018-11-25T09:01:30.147Z,41.90
2018-11-25T09:04:12.666Z,35.50
2018-11-25T09:06:54.854Z,37.07
2018-11-25T09:09:36.382Z,38.60
2018-11-25T09:12:18.059Z,35.07
2018-11-25T09:15:00.360Z,37.90
2018-11-25T09:17:42.374Z,30.43
2018-11-25T09:20:23.956Z,30.50
2018-11-25T09:23:05.664Z,31.63
2018-11-25T09:25:48.171Z,37.53
2018-11-25T09:28:30.559Z,32.07
2018-11-25T09:31:14.311Z,26.17
2018-11-25T09:33:56.874Z,24.50
2018-11-25T09:36:39.303Z,26.67
2018-11-25T09:39:21.206Z,29.43
2018-11-25T09:42:03.532Z,29.33
2018-11-25T09:44:45.511Z,30.57
2018-11-25T09:47:27.614Z,35.37
2018-11-25T09:50:12.990Z,33.83
2018-11-25T09:52:55.829Z,34.60
2018-11-25T09:55:37.402Z,34.77
2018-11-25T09:58:25.340Z,37.77
2018-11-25T10:01:02.329Z,34.00
2018-11-25T10:03:44.718Z,37.23
2018-11-25T10:06:27.026Z,39.50
2018-11-25T10:09:09.334Z,28.67
2018-11-25T10:11:51.631Z,30.47
2018-11-25T10:14:34.352Z,30.17
2018-11-25T10:17:16.750Z,30.90
2018-11-25T10:19:59.244Z,33.20
2018-11-25T10:22:41.568Z,33.73
2018-11-25T10:25:22.934Z,31.10
2018-11-25T10:28:05.378Z,31.80
2018-11-25T10:30:48.010Z,29.27
2018-11-25T10:33:30.126Z,28.97
2018-11-25T10:36:13.219Z,24.27
2018-11-25T10:38:55.400Z,25.30
2018-11-25T10:41:37.428Z,24.23
2018-11-25T10:44:18.888Z,29.07
2018-11-25T10:47:00.863Z,26.63
2018-11-25T10:49:42.898Z,27.47
2018-11-25T10:52:25.618Z,24.40
2018-11-25T10:55:08.887Z,26.93
2018-11-25T10:57:51.833Z,24.30
2018-11-25T11:00:41.839Z,21.60
2018-11-25T11:03:29.715Z,22.93
2018-11-25T11:06:17.370Z,25.60
2018-11-25T11:08:59.487Z,23.47
2018-11-25T11:11:41.663Z,26.40
2018-11-25T11:14:23.387Z,26.27
2018-11-25T11:17:04.666Z,29.73
2018-11-25T11:19:45.980Z,28.23
2018-11-25T11:22:27.766Z,30.87
2018-11-25T11:25:09.578Z,30.90
2018-11-25T11:27:51.089Z,27.43
2018-11-25T11:30:32.718Z,28.83
2018-11-25T11:33:14.302Z,31.93
2018-11-25T11:35:57.001Z,34.77
2018-11-25T11:38:39.603Z,28.27
2018-11-25T11:41:22.235Z,31.97
2018-11-25T11:44:04.470Z,32.00
2018-11-25T11:46:48.459Z,30.57
2018-11-25T11:49:30.901Z,31.17
2018-11-25T11:52:13.546Z,32.50
2018-11-25T11:54:56.555Z,35.57
2018-11-25T11:57:39.842Z,32.60
2018-11-25T12:00:29.650Z,32.20
2018-11-25T12:03:13.314Z,36.17
2018-11-25T12:05:55.393Z,32.43
2018-11-25T12:08:38.904Z,33.13
2018-11-25T12:11:21.890Z,33.40
2018-11-25T12:14:04.104Z,33.53
2018-11-25T12:16:47.181Z,39.73
2018-11-25T12:19:29.188Z,42.10
2018-11-25T12:22:11.537Z,37.40
2018-11-25T12:24:53.264Z,37.33
2018-11-25T12:27:35.759Z,36.73
2018-11-25T12:30:20.509Z,36.93
2018-11-25T12:33:02.864Z,38.73
2018-11-25T12:35:44.644Z,34.63
2018-11-25T12:38:27.107Z,37.53
2018-11-25T12:41:08.771Z,34.40
2018-11-25T12:43:51.425Z,31.97
2018-11-25T12:46:33.688Z,36.40
2018-11-25T12:49:15.327Z,34.80
2018-11-25T12:51:57.734Z,34.73
2018-11-25T12:54:39.221Z,32.40
2018-11-25T12:57:20.524Z,34.20
2018-11-25T13:00:02.184Z,36.03
2018-11-25T13:02:44.401Z,31.47
2018-11-25T13:05:26.721Z,36.10
2018-11-25T13:08:09.105Z,37.60
2018-11-25T13:10:51.094Z,36.87
2018-11-25T13:13:33.695Z,35.63
2018-11-25T13:16:16.299Z,35.53
2018-11-25T13:18:58.651Z,34.10
2018-11-25T13:21:41.026Z,38.43
2018-11-25T13:24:23.847Z,37.27
2018-11-25T13:27:05.762Z,40.00
2018-11-25T13:29:48.782Z,39.57
2018-11-25T13:32:30.657Z,42.80
2018-11-25T13:35:13.289Z,42.03
2018-11-25T13:41:39.500Z,35.80
2018-11-25T13:44:21.991Z,33.63
2018-11-25T13:47:06.151Z,37.87
2018-11-25T13:49:48.442Z,40.30
2018-11-25T13:52:30.495Z,38.50
2018-11-25T13:55:18.915Z,36.30
2018-11-25T13:58:01.403Z,34.10
2018-11-25T14:00:46.860Z,32.60
2018-11-25T14:03:33.846Z,34.50
2018-11-25T14:06:16.391Z,30.50
2018-11-25T14:08:58.545Z,27.87
2018-11-25T14:11:40.076Z,32.83
2018-11-25T14:14:22.562Z,32.97
2018-11-25T14:17:05.123Z,33.57
2018-11-25T14:19:47.705Z,33.27
2018-11-25T14:22:29.867Z,33.93
2018-11-25T14:25:13.647Z,32.40
2018-11-25T14:27:59.637Z,34.13
2018-11-25T14:30:43.151Z,33.53
2018-11-25T14:33:25.359Z,31.63
2018-11-25T14:36:08.123Z,31.97
2018-11-25T14:38:50.373Z,34.63
2018-11-25T14:41:32.599Z,32.80
2018-11-25T14:44:14.364Z,30.70
2018-11-25T14:46:56.574Z,35.10
2018-11-25T14:49:38.789Z,32.60
2018-11-25T14:52:21.349Z,35.53
2018-11-25T14:55:03.269Z,31.90
2018-11-25T14:57:44.658Z,34.13
2018-11-25T15:00:26.965Z,37.23
2018-11-25T15:03:09.073Z,37.07
2018-11-25T15:05:50.809Z,41.60
2018-11-25T15:08:32.988Z,37.63
2018-11-25T15:11:16.002Z,38.60
2018-11-25T15:13:57.979Z,35.33
2018-11-25T15:16:41.418Z,36.63
2018-11-25T15:19:22.699Z,40.10
2018-11-25T15:22:06.065Z,35.43
2018-11-25T15:24:48.715Z,40.00
2018-11-25T15:27:30.760Z,49.33
2018-11-25T15:30:12.970Z,48.13
2018-11-25T15:32:55.353Z,43.03
2018-11-25T15:35:36.851Z,43.13
2018-11-25T15:38:19.880Z,47.30
2018-11-25T15:41:02.368Z,44.47
2018-11-25T15:43:44.565Z,43.47
2018-11-25T15:46:26.285Z,41.47
2018-11-25T15:49:08.700Z,44.80
2018-11-25T15:51:51.175Z,45.07
2018-11-25T15:54:33.771Z,44.30
2018-11-25T15:57:16.794Z,47.63
2018-11-25T15:59:59.117Z,46.23
2018-11-25T16:02:41.698Z,47.30
2018-11-25T16:05:30.177Z,48.43
2018-11-25T16:08:11.593Z,50.50
2018-11-25T16:10:53.382Z,47.97
2018-11-25T16:13:35.999Z,46.93
2018-11-25T16:16:18.482Z,53.10
2018-11-25T16:19:00.705Z,54.70
2018-11-25T16:21:42.595Z,53.30
2018-11-25T16:24:24.467Z,51.30
2018-11-25T16:27:07.793Z,48.30
2018-11-25T16:29:49.721Z,51.80
2018-11-25T16:32:32.614Z,47.23
2018-11-25T16:35:14.614Z,43.77
2018-11-25T16:38:10.475Z,45.17
2018-11-25T16:40:56.247Z,42.43
2018-11-25T16:43:41.153Z,45.57
2018-11-25T16:46:23.806Z,43.67
2018-11-25T16:49:06.626Z,45.67
2018-11-25T16:51:52.717Z,46.13
2018-11-25T16:54:35.542Z,45.20
2018-11-25T16:57:17.944Z,49.17
2018-11-25T17:00:00.167Z,46.93
2018-11-25T17:02:43.417Z,48.23
2018-11-25T17:05:27.603Z,53.73
2018-11-25T17:08:13.060Z,52.43
2018-11-25T17:10:57.302Z,47.23
2018-11-25T17:13:42.450Z,48.50
2018-11-25T17:16:25.944Z,52.80
2018-11-25T17:23:04.639Z,48.33
2018-11-25T17:29:18.078Z,50.00
2018-11-25T17:32:01.520Z,47.70
2018-11-25T17:34:44.473Z,49.40
2018-11-25T17:37:28.086Z,57.03
2018-11-25T17:40:22.918Z,51.93
2018-11-25T17:43:26.958Z,54.50
2018-11-25T17:46:11.010Z,51.77
2018-11-25T17:48:53.763Z,52.80
2018-11-25T17:51:42.792Z,52.17
2018-11-25T17:54:27.025Z,44.83
2018-11-25T17:57:11.503Z,46.17
2018-11-25T17:59:55.869Z,48.80
2018-11-25T18:02:39.386Z,54.57
2018-11-25T18:05:24.145Z,50.47
2018-11-25T18:08:20.738Z,49.23
2018-11-25T18:11:14.687Z,50.90
2018-11-25T18:14:07.548Z,51.77
2018-11-25T18:17:07.963Z,50.20
2018-11-25T18:20:08.716Z,45.70
2018-11-25T18:23:16.199Z,48.57
2018-11-25T18:26:01.765Z,50.30
2018-11-25T18:28:45.767Z,45.47
2018-11-25T18:31:28.493Z,45.27
2018-11-25T18:34:11.340Z,51.03
2018-11-25T18:36:55.389Z,51.27
2018-11-25T18:39:40.283Z,51.20
2018-11-25T18:42:25.013Z,49.43
2018-11-25T18:45:18.498Z,48.50
2018-11-25T18:48:02.747Z,51.33
2018-11-25T18:50:46.818Z,47.67
2018-11-25T18:53:29.168Z,49.97
2018-11-25T18:56:13.637Z,46.87
2018-11-25T18:58:57.788Z,49.87
2018-11-25T19:01:46.051Z,49.00
2018-11-25T19:04:28.936Z,44.63
2018-11-25T19:07:14.515Z,48.23
2018-11-25T19:09:57.627Z,46.00
2018-11-25T19:12:44.201Z,43.47
2018-11-25T19:15:26.625Z,44.47
2018-11-25T19:18:10.624Z,45.53
2018-11-25T19:20:56.199Z,45.03
2018-11-25T19:23:41.290Z,43.10
2018-11-25T19:26:24.511Z,42.70
2018-11-25T19:29:08.651Z,46.73
2018-11-25T19:31:52.995Z,44.57
2018-11-25T19:34:35.938Z,46.40
2018-11-25T19:37:22.368Z,48.80
2018-11-25T19:40:05.877Z,47.43
2018-11-25T19:42:50.332Z,44.70
2018-11-25T19:45:34.373Z,45.20
2018-11-25T19:48:18.381Z,43.67
2018-11-25T19:51:00.610Z,47.30
2018-11-25T19:53:43.561Z,44.90
2018-11-25T19:56:26.361Z,44.10
2018-11-25T19:59:11.160Z,42.73
2018-11-25T20:01:56.529Z,46.27
2018-11-25T20:04:39.857Z,47.83
2018-11-25T20:07:22.953Z,47.90
2018-11-25T20:10:09.905Z,48.70
2018-11-25T20:12:56.556Z,46.80
2018-11-25T20:15:40.394Z,50.33
2018-11-25T20:18:27.047Z,44.93
2018-11-25T20:21:14.978Z,45.90
2018-11-25T20:23:58.908Z,41.67
2018-11-25T20:26:56.353Z,40.10
2018-11-25T20:29:41.004Z,48.10
2018-11-25T20:32:29.884Z,43.37
2018-11-25T20:35:15.162Z,44.30
2018-11-25T20:38:03.321Z,44.57
2018-11-25T20:40:46.831Z,40.00
2018-11-25T20:43:30.514Z,47.57
2018-11-25T20:46:19.408Z,42.20
2018-11-25T20:49:01.872Z,46.93
2018-11-25T20:51:51.106Z,43.23
2018-11-25T20:54:33.792Z,42.80
2018-11-25T20:57:16.989Z,43.87
2018-11-25T21:00:00.488Z,41.17
2018-11-25T21:02:43.629Z,42.33
2018-11-25T21:05:26.851Z,45.53
2018-11-25T21:08:10.145Z,46.80
2018-11-25T21:10:53.926Z,44.87
2018-11-25T21:13:36.270Z,43.63
2018-11-25T21:16:19.731Z,41.10
2018-11-25T21:19:02.844Z,43.50
2018-11-25T21:21:46.703Z,45.33
2018-11-25T21:24:30.515Z,44.73
2018-11-25T21:27:13.645Z,43.63
2018-11-25T21:30:02.658Z,47.73
2018-11-25T21:32:46.337Z,46.30
2018-11-25T21:35:29.285Z,42.47
2018-11-25T21:38:16.764Z,44.10
2018-11-25T21:41:01.156Z,41.37
2018-11-25T21:43:44.800Z,37.57
2018-11-25T21:46:27.621Z,40.90
2018-11-25T21:49:09.947Z,40.67
2018-11-25T21:51:53.482Z,41.43
2018-11-25T21:54:36.177Z,42.10
2018-11-25T21:57:20.214Z,40.17
2018-11-25T22:00:03.309Z,39.13
2018-11-25T22:02:45.441Z,41.27
2018-11-25T22:05:28.421Z,41.00
2018-11-25T22:08:12.789Z,43.40
2018-11-25T22:10:56.327Z,38.23
2018-11-25T22:13:39.965Z,43.77
2018-11-25T22:16:23.223Z,40.10
2018-11-25T22:19:06.190Z,43.73
2018-11-25T22:21:50.579Z,43.63
2018-11-25T22:24:46.105Z,44.80
2018-11-25T22:27:28.583Z,42.93
2018-11-25T22:30:18.476Z,43.63
2018-11-25T22:33:01.293Z,40.43
2018-11-25T22:35:45.155Z,39.40
2018-11-25T22:38:27.863Z,42.20
2018-11-25T22:41:12.509Z,40.83
2018-11-25T22:43:55.961Z,45.07
2018-11-25T22:46:39.117Z,41.53
2018-11-25T22:49:22.287Z,42.07
2018-11-25T22:52:07.626Z,41.37
2018-11-25T22:54:51.385Z,45.13
2018-11-25T22:57:34.524Z,41.67
2018-11-25T23:00:33.297Z,45.03
2018-11-25T23:03:16.545Z,40.80
2018-11-25T23:07:08.387Z,40.10
2018-11-25T23:09:51.473Z,38.80
2018-11-25T23:12:33.782Z,36.73
2018-11-25T23:15:16.830Z,38.97
2018-11-25T23:17:59.811Z,34.90
2018-11-25T23:20:43.986Z,34.17
2018-11-25T23:23:27.344Z,31.60
2018-11-25T23:26:11.341Z,36.37
2018-11-25T23:28:54.406Z,35.40
2018-11-25T23:31:37.855Z,38.80
2018-11-25T23:34:20.651Z,35.50
2018-11-25T23:37:05.205Z,35.63
2018-11-25T23:39:47.722Z,36.23
2018-11-25T23:42:30.331Z,38.63
2018-11-25T23:45:14.481Z,40.27
2018-11-25T23:47:57.706Z,37.13
2018-11-25T23:50:40.012Z,41.03
2018-11-25T23:53:23.745Z,37.80
2018-11-25T23:56:07.113Z,38.03
2018-11-25T23:58:51.044Z,36.53
